Time;durP1;ratioP1;P1;durP2;ratioP2;P2;SDS_P1;SDS_P2;PMS_P1;PMS_P2;Temp;Humidity;BMP_temperature;BMP_pressure;BME280_temperature;BME280_humidity;BME280_pressure;Samples;Min_cycle;Max_cycle;Signal;HPM_P1;HPM_P2
2022/06/23 00:00:31;;;;;;;3.17;1.00;;;21.10;99.90;;;;;;4955222;29;20256;-96
2022/06/23 00:03:09;;;;;;;1.40;0.80;;;21.00;99.90;;;;;;5112361;23;20557;-96
2022/06/23 00:05:43;;;;;;;2.43;1.27;;;20.60;99.90;;;;;;4957402;28;20232;-96
2022/06/23 00:08:18;;;;;;;1.37;0.80;;;20.70;99.90;;;;;;4956968;29;20219;-96
2022/06/23 00:10:53;;;;;;;1.97;0.90;;;20.70;99.90;;;;;;4940477;29;20251;-96
2022/06/23 00:13:34;;;;;;;2.07;1.03;;;20.60;99.90;;;;;;4958917;29;20196;-96
2022/06/23 01:10:13;;;;;;;1.10;0.67;;;20.60;99.90;;;;;;5884256;23;20247;-92
2022/06/23 01:12:50;;;;;;;1.27;0.77;;;20.60;99.90;;;;;;4966337;28;20293;-88
2022/06/23 01:18:24;;;;;;;0.60;0.60;;;20.40;99.90;;;;;;4959770;28;20203;-89
2022/06/23 01:21:03;;;;;;;2.23;0.63;;;20.40;99.90;;;;;;4954099;29;20716;-89
2022/06/23 01:23:47;;;;;;;0.63;0.63;;;20.40;99.90;;;;;;4940509;29;20220;-89
2022/06/23 01:26:50;;;;;;;1.43;0.87;;;20.50;99.90;;;;;;4940313;29;20247;-89
2022/06/23 01:29:27;;;;;;;1.37;0.87;;;20.50;99.90;;;;;;4915667;29;20271;-89
2022/06/23 01:46:36;;;;;;;0.90;0.63;;;20.50;99.90;;;;;;4952432;29;20338;-94
2022/06/23 01:49:19;;;;;;;1.33;0.90;;;20.40;99.90;;;;;;4950763;28;20232;-91
2022/06/23 01:51:52;;;;;;;1.17;0.70;;;20.30;99.90;;;;;;4961589;28;20235;-91
2022/06/23 01:54:28;;;;;;;0.70;0.70;;;20.00;99.90;;;;;;4941496;29;20204;-91
2022/06/23 01:57:11;;;;;;;1.27;0.57;;;20.00;99.90;;;;;;4951889;28;20228;-96
2022/06/23 01:59:54;;;;;;;0.90;0.67;;;20.00;99.90;;;;;;4954321;28;20220;-96
2022/06/23 02:02:53;;;;;;;0.90;0.60;;;20.00;99.90;;;;;;4955410;28;20204;-96
2022/06/23 02:05:38;;;;;;;0.87;0.70;;;20.00;99.90;;;;;;4957180;28;20188;-96
2022/06/23 02:08:21;;;;;;;1.23;0.80;;;19.90;99.90;;;;;;5134876;23;20249;-96
2022/06/23 02:11:01;;;;;;;0.63;0.60;;;20.00;99.90;;;;;;4921058;29;20598;-96
2022/06/23 02:13:53;;;;;;;2.97;0.90;;;20.10;99.90;;;;;;4936516;29;20273;-97
2022/06/23 02:20:16;;;;;;;1.50;0.90;;;19.50;99.90;;;;;;4962403;23;20239;-96
2022/06/23 02:50:13;;;;;;;1.40;1.03;;;19.00;99.90;;;;;;5257383;23;20211;-95
2022/06/23 02:57:03;;;;;;;5.20;1.23;;;18.80;99.90;;;;;;4961241;29;20230;-93
2022/06/23 02:59:43;;;;;;;4.77;1.00;;;18.90;99.90;;;;;;4963369;28;20219;-91
2022/06/23 03:21:11;;;;;;;2.60;1.03;;;18.30;99.90;;;;;;5260915;23;20287;-96
2022/06/23 03:27:00;;;;;;;3.07;1.27;;;18.10;99.90;;;;;;4976760;28;20204;-96
2022/06/23 03:49:24;;;;;;;2.73;1.30;;;17.60;99.90;;;;;;4982741;28;20223;-96
2022/06/23 03:52:00;;;;;;;4.97;1.40;;;17.50;99.90;;;;;;4980473;28;20202;-96
2022/06/23 04:04:42;;;;;;;3.67;1.50;;;17.10;99.90;;;;;;4965433;28;20214;-96
2022/06/23 04:07:49;;;;;;;5.07;1.87;;;17.00;99.90;;;;;;4963137;28;20212;-96
2022/06/23 04:10:36;;;;;;;3.57;1.50;;;16.90;99.90;;;;;;4963216;28;21023;-96
2022/06/23 04:13:25;;;;;;;5.07;1.70;;;16.90;99.90;;;;;;4962169;28;20223;-96
2022/06/23 04:18:58;;;;;;;4.67;1.43;;;16.80;99.90;;;;;;4961526;28;20212;-96
2022/06/23 04:21:43;;;;;;;6.10;1.77;;;16.80;99.90;;;;;;4962057;28;20215;-96
2022/06/23 04:24:49;;;;;;;3.03;1.33;;;16.80;99.90;;;;;;4964815;28;20230;-96
2022/06/23 04:27:44;;;;;;;4.30;1.53;;;16.70;99.90;;;;;;4974030;28;20663;-96
2022/06/23 04:30:33;;;;;;;4.30;1.43;;;16.60;99.90;;;;;;4973310;28;20266;-96
2022/06/23 04:35:56;;;;;;;4.40;1.60;;;16.50;99.90;;;;;;4967565;28;20214;-96
2022/06/23 04:38:34;;;;;;;3.57;1.63;;;16.40;99.90;;;;;;4981099;28;20207;-96
2022/06/23 04:41:17;;;;;;;5.73;1.67;;;16.40;99.90;;;;;;4971838;28;20268;-96
2022/06/23 04:43:55;;;;;;;6.33;1.20;;;16.40;99.90;;;;;;4971287;28;20461;-96
2022/06/23 04:46:33;;;;;;;4.97;1.60;;;16.30;99.90;;;;;;4965797;28;20211;-96
2022/06/23 04:49:21;;;;;;;4.37;1.40;;;16.20;99.90;;;;;;4971185;28;20210;-96
2022/06/23 04:52:00;;;;;;;4.43;1.70;;;16.20;99.90;;;;;;4975140;28;20657;-95
2022/06/23 04:54:37;;;;;;;4.43;1.67;;;16.10;99.90;;;;;;4977863;28;20808;-96
2022/06/23 04:57:17;;;;;;;5.00;1.87;;;16.00;99.90;;;;;;4977073;28;20245;-96
2022/06/23 04:59:53;;;;;;;6.93;2.00;;;15.90;99.90;;;;;;4959924;28;20220;-96
2022/06/23 05:02:34;;;;;;;5.37;1.43;;;15.90;99.90;;;;;;4959994;28;20250;-96
2022/06/23 05:08:10;;;;;;;5.70;1.67;;;15.80;99.90;;;;;;4964400;28;20569;-96
2022/06/23 05:10:51;;;;;;;13.03;2.07;;;15.80;99.90;;;;;;4958993;28;20259;-96
2022/06/23 05:13:43;;;;;;;6.00;1.70;;;15.70;99.90;;;;;;4979606;28;20226;-96
2022/06/23 05:16:22;;;;;;;5.70;1.67;;;15.70;99.90;;;;;;4968395;28;20960;-96
2022/06/23 05:19:07;;;;;;;4.47;1.60;;;15.60;99.90;;;;;;4973034;28;20287;-96
2022/06/23 05:21:44;;;;;;;5.57;1.63;;;15.60;99.90;;;;;;4961020;28;20234;-96
2022/06/23 05:24:21;;;;;;;7.80;1.47;;;15.60;99.90;;;;;;4960219;28;20203;-96
2022/06/23 05:26:58;;;;;;;4.67;1.53;;;15.60;99.90;;;;;;4962098;28;20219;-96
2022/06/23 05:29:44;;;;;;;6.23;1.30;;;15.50;99.90;;;;;;4970195;28;20228;-95
2022/06/23 05:32:25;;;;;;;6.17;1.57;;;15.50;99.90;;;;;;4982344;28;20269;-96
2022/06/23 05:35:25;;;;;;;6.53;1.80;;;15.50;99.90;;;;;;4996141;28;20227;-96
2022/06/23 05:38:02;;;;;;;3.77;1.60;;;15.40;99.90;;;;;;4995839;28;20210;-96
2022/06/23 05:40:43;;;;;;;9.57;2.13;;;15.30;99.90;;;;;;4979144;28;20230;-95
2022/06/23 05:43:15;;;;;;;4.87;1.80;;;15.30;99.90;;;;;;4976570;28;20267;-96
2022/06/23 05:45:50;;;;;;;6.50;1.73;;;15.30;99.90;;;;;;4963634;28;20223;-96
2022/06/23 05:48:27;;;;;;;7.77;1.93;;;15.30;99.90;;;;;;4963285;28;20266;-95
2022/06/23 05:51:05;;;;;;;7.87;1.80;;;15.10;99.90;;;;;;4963509;28;20243;-96
2022/06/23 05:53:42;;;;;;;9.67;1.87;;;15.00;99.90;;;;;;4959572;28;20716;-96
2022/06/23 05:56:19;;;;;;;8.97;2.23;;;14.90;99.90;;;;;;4961883;28;20230;-94
2022/06/23 05:58:59;;;;;;;7.00;2.00;;;14.80;99.90;;;;;;4959547;28;20199;-95
2022/06/23 06:01:52;;;;;;;7.77;1.90;;;14.60;99.90;;;;;;4969466;28;20241;-94
2022/06/23 06:07:33;;;;;;;9.10;1.73;;;14.40;99.90;;;;;;4980981;28;20214;-96
2022/06/23 06:10:06;;;;;;;6.20;1.70;;;14.40;99.90;;;;;;4972014;28;20910;-96
2022/06/23 06:12:40;;;;;;;8.83;2.17;;;14.30;99.90;;;;;;4982248;28;20661;-91
2022/06/23 06:15:22;;;;;;;9.10;2.03;;;14.20;99.90;;;;;;4975622;28;20301;-96
2022/06/23 06:18:03;;;;;;;11.03;2.53;;;14.20;99.90;;;;;;4974692;28;20237;-96
2022/06/23 06:20:37;;;;;;;5.37;1.77;;;14.20;99.90;;;;;;4973293;28;20214;-95
2022/06/23 06:23:12;;;;;;;9.53;2.30;;;14.10;99.90;;;;;;4994110;28;20311;-94
2022/06/23 06:25:48;;;;;;;9.23;2.20;;;14.00;99.90;;;;;;4969279;28;20253;-95
2022/06/23 06:28:23;;;;;;;9.60;2.20;;;13.90;99.90;;;;;;4967252;28;20235;-96
2022/06/23 06:31:02;;;;;;;9.37;2.07;;;13.90;99.90;;;;;;4987053;28;20246;-96
2022/06/23 06:33:53;;;;;;;9.60;2.27;;;13.90;99.90;;;;;;4969368;28;20247;-95
2022/06/23 06:36:28;;;;;;;11.97;2.07;;;13.90;99.90;;;;;;4966357;28;20640;-96
2022/06/23 06:39:03;;;;;;;8.27;2.03;;;13.90;99.90;;;;;;4982699;28;20247;-94
2022/06/23 06:41:35;;;;;;;7.00;1.67;;;13.80;99.90;;;;;;4966331;28;20240;-96
2022/06/23 06:44:07;;;;;;;11.20;2.20;;;13.80;99.90;;;;;;4996027;28;20230;-96
2022/06/23 06:46:42;;;;;;;9.97;2.17;;;13.80;99.90;;;;;;4981953;28;20248;-96
2022/06/23 06:49:19;;;;;;;11.10;2.50;;;13.80;99.90;;;;;;4962374;28;20224;-96
2022/06/23 06:51:52;;;;;;;9.67;2.00;;;13.70;99.90;;;;;;4968097;28;20239;-96
2022/06/23 06:54:28;;;;;;;9.97;2.07;;;13.80;99.90;;;;;;4962962;28;20219;-95
2022/06/23 06:57:04;;;;;;;10.50;1.97;;;13.80;99.90;;;;;;4962579;28;20207;-96
2022/06/23 06:59:45;;;;;;;9.87;2.50;;;13.80;99.90;;;;;;4962761;28;20234;-96
2022/06/23 07:02:23;;;;;;;5.40;1.87;;;13.80;99.90;;;;;;4964572;28;20219;-96
2022/06/23 07:05:02;;;;;;;8.17;1.83;;;13.70;99.90;;;;;;4964276;28;20238;-96
2022/06/23 07:07:38;;;;;;;7.90;2.43;;;13.70;99.90;;;;;;4979047;28;20261;-96
2022/06/23 07:10:22;;;;;;;5.97;2.00;;;13.60;99.90;;;;;;4965503;28;20910;-96
2022/06/23 07:12:58;;;;;;;11.40;2.53;;;13.50;99.90;;;;;;4972632;28;20298;-95
2022/06/23 07:15:34;;;;;;;11.13;2.33;;;13.50;99.90;;;;;;4980733;28;20268;-96
2022/06/23 07:18:14;;;;;;;13.07;2.23;;;13.40;99.90;;;;;;4977388;28;20230;-96
2022/06/23 07:20:52;;;;;;;15.73;2.20;;;13.50;99.90;;;;;;4971852;28;20215;-96
2022/06/23 07:23:28;;;;;;;10.27;2.30;;;13.40;99.90;;;;;;4960738;28;20255;-96
2022/06/23 07:26:23;;;;;;;14.20;2.50;;;13.40;99.90;;;;;;4963811;28;20378;-95
2022/06/23 07:29:00;;;;;;;13.40;2.53;;;13.40;99.90;;;;;;4968632;28;20657;-95
2022/06/23 07:31:48;;;;;;;10.47;2.17;;;13.40;99.90;;;;;;4961457;28;20242;-95
2022/06/23 07:34:24;;;;;;;7.67;1.83;;;13.40;99.90;;;;;;4979639;28;20265;-96
2022/06/23 07:37:12;;;;;;;8.73;1.97;;;13.30;99.90;;;;;;4979464;28;20215;-96
2022/06/23 07:39:44;;;;;;;7.73;2.63;;;13.30;99.90;;;;;;4980467;28;20269;-94
2022/06/23 07:42:22;;;;;;;8.90;2.40;;;13.30;99.90;;;;;;4979507;28;20342;-96
2022/06/23 07:45:02;;;;;;;10.73;2.17;;;13.20;99.90;;;;;;4982633;28;20198;-95
2022/06/23 07:47:34;;;;;;;11.70;2.23;;;13.20;99.90;;;;;;4981681;28;20215;-95
2022/06/23 07:50:07;;;;;;;13.00;2.23;;;13.20;99.90;;;;;;4979815;28;20234;-96
2022/06/23 07:52:41;;;;;;;9.83;2.43;;;13.20;99.90;;;;;;4999735;28;20273;-95
2022/06/23 07:55:21;;;;;;;13.53;2.73;;;13.10;99.90;;;;;;5000115;28;20206;-96
2022/06/23 07:58:14;;;;;;;8.27;2.17;;;13.10;99.90;;;;;;4960182;28;20263;-95
2022/06/23 08:00:47;;;;;;;8.57;2.20;;;13.10;99.90;;;;;;4959834;28;20227;-96
2022/06/23 08:03:27;;;;;;;9.23;2.10;;;13.10;99.90;;;;;;4979206;28;20211;-96
2022/06/23 08:06:03;;;;;;;10.30;2.03;;;13.00;99.90;;;;;;4974254;28;20223;-96
2022/06/23 08:08:38;;;;;;;11.30;2.60;;;13.00;99.90;;;;;;4975186;28;20226;-96
2022/06/23 08:14:30;;;;;;;11.00;2.33;;;13.00;99.90;;;;;;4961714;28;20613;-95
2022/06/23 08:17:06;;;;;;;11.77;2.87;;;13.10;99.90;;;;;;4963155;28;20211;-96
2022/06/23 08:19:42;;;;;;;8.30;2.10;;;13.10;99.90;;;;;;4987721;28;20489;-95
2022/06/23 08:22:16;;;;;;;10.23;2.40;;;13.10;99.90;;;;;;4987713;28;20203;-96
2022/06/23 08:24:52;;;;;;;8.23;1.93;;;13.10;99.90;;;;;;4983690;28;20246;-96
2022/06/23 08:27:47;;;;;;;15.07;3.10;;;13.10;99.90;;;;;;5020476;23;20297;-96
2022/06/23 08:30:19;;;;;;;9.20;2.30;;;13.00;99.90;;;;;;4977663;28;20230;-96
2022/06/23 08:32:55;;;;;;;9.50;2.23;;;13.00;99.90;;;;;;4977823;28;20318;-96
2022/06/23 08:35:36;;;;;;;9.53;1.93;;;12.90;99.90;;;;;;4964590;28;20208;-96
2022/06/23 08:38:15;;;;;;;8.50;1.97;;;12.90;99.90;;;;;;4968020;28;20227;-96
2022/06/23 08:41:14;;;;;;;8.33;2.20;;;12.80;99.90;;;;;;4967132;28;20279;-96
2022/06/23 08:46:56;;;;;;;10.53;2.30;;;12.70;99.90;;;;;;4943396;28;20239;-96
2022/06/23 08:49:34;;;;;;;9.13;1.90;;;12.60;99.90;;;;;;4942223;29;20216;-96
2022/06/23 08:52:16;;;;;;;11.53;1.80;;;12.60;99.90;;;;;;4943975;29;20248;-96
2022/06/23 08:54:55;;;;;;;12.10;2.20;;;12.60;99.90;;;;;;4940509;28;20231;-96
2022/06/23 08:57:40;;;;;;;9.57;2.10;;;12.60;99.90;;;;;;4940904;29;20212;-96
2022/06/23 09:00:17;;;;;;;7.80;1.70;;;12.60;99.90;;;;;;4940564;29;20212;-96
2022/06/23 09:02:59;;;;;;;11.23;2.07;;;12.50;99.90;;;;;;4941157;28;20295;-96
2022/06/23 09:05:44;;;;;;;9.90;2.00;;;12.60;99.90;;;;;;4944779;29;20227;-96
2022/06/23 09:08:21;;;;;;;9.33;1.80;;;12.60;99.90;;;;;;4941035;29;20256;-96
2022/06/23 09:11:19;;;;;;;9.03;2.23;;;12.70;99.90;;;;;;4939458;29;20214;-96
2022/06/23 09:14:10;;;;;;;10.23;2.03;;;12.60;99.90;;;;;;4940506;29;20208;-96
2022/06/23 09:17:00;;;;;;;10.67;2.20;;;12.50;99.90;;;;;;4952001;29;20192;-96
2022/06/23 09:19:49;;;;;;;9.13;1.90;;;12.40;99.90;;;;;;4955773;28;20229;-96
2022/06/23 09:22:57;;;;;;;8.00;2.03;;;12.40;99.90;;;;;;4974477;28;20203;-95
2022/06/23 09:25:41;;;;;;;10.03;2.80;;;12.40;99.90;;;;;;4978156;28;20203;-96
2022/06/23 09:28:19;;;;;;;9.67;1.83;;;12.50;99.90;;;;;;4977481;28;20228;-96
2022/06/23 09:31:19;;;;;;;5.53;1.53;;;12.50;99.90;;;;;;4976714;28;20203;-96
2022/06/23 09:34:15;;;;;;;9.30;1.90;;;12.50;99.90;;;;;;4966990;28;20218;-96
2022/06/23 09:37:19;;;;;;;10.73;2.57;;;12.50;99.90;;;;;;4958742;28;20211;-96
2022/06/23 09:40:12;;;;;;;11.30;1.83;;;12.50;99.90;;;;;;4959502;28;20203;-96
2022/06/23 09:43:16;;;;;;;10.47;2.60;;;12.50;99.90;;;;;;4962975;28;20216;-96
2022/06/23 09:46:10;;;;;;;12.03;2.10;;;12.50;99.90;;;;;;4963519;28;20294;-95
2022/06/23 09:48:57;;;;;;;8.00;1.70;;;12.50;99.90;;;;;;4963908;28;20235;-96
2022/06/23 09:51:57;;;;;;;12.23;2.20;;;12.50;99.90;;;;;;4962552;28;20203;-96
2022/06/23 09:54:52;;;;;;;10.03;2.53;;;12.40;99.90;;;;;;4962567;28;20203;-96
2022/06/23 09:57:45;;;;;;;7.40;1.93;;;12.30;99.90;;;;;;4961922;28;20243;-96
2022/06/23 10:00:20;;;;;;;6.97;1.83;;;12.40;99.90;;;;;;4962846;28;20244;-96
2022/06/23 10:03:02;;;;;;;8.73;2.10;;;12.30;99.90;;;;;;4963345;28;20301;-96
2022/06/23 10:05:52;;;;;;;11.17;2.40;;;12.30;99.90;;;;;;4966207;28;20278;-96
2022/06/23 10:08:43;;;;;;;11.20;2.17;;;12.30;99.90;;;;;;4964613;28;20283;-96
2022/06/23 10:11:50;;;;;;;10.37;2.10;;;12.30;99.90;;;;;;4965962;28;20256;-96
2022/06/23 10:14:39;;;;;;;6.43;2.43;;;12.30;99.90;;;;;;4949079;29;20220;-96
2022/06/23 10:17:35;;;;;;;9.03;2.07;;;12.30;99.90;;;;;;4944007;29;20275;-95
2022/06/23 10:20:46;;;;;;;7.57;1.80;;;12.30;99.90;;;;;;4953262;29;20688;-95
2022/06/23 10:23:46;;;;;;;14.53;2.57;;;12.20;99.90;;;;;;4937136;29;20216;-96
2022/06/23 10:26:40;;;;;;;8.13;1.70;;;12.00;99.90;;;;;;4944690;28;20215;-96
2022/06/23 10:29:27;;;;;;;12.13;1.97;;;12.10;99.90;;;;;;4939278;29;20267;-95
2022/06/23 10:32:25;;;;;;;9.37;1.80;;;12.00;99.90;;;;;;4942858;28;20252;-94
2022/06/23 10:35:19;;;;;;;6.60;1.80;;;11.90;99.90;;;;;;4940970;29;20245;-96
2022/06/23 10:38:09;;;;;;;14.00;2.33;;;11.90;99.90;;;;;;4944066;29;20632;-95
2022/06/23 10:41:12;;;;;;;13.83;2.37;;;11.90;99.90;;;;;;4941588;29;20208;-95
2022/06/23 10:44:10;;;;;;;9.27;1.83;;;11.90;99.90;;;;;;4937698;29;20244;-95
2022/06/23 10:46:44;;;;;;;12.50;2.10;;;11.90;99.90;;;;;;4943163;29;20212;-95
2022/06/23 10:49:59;;;;;;;11.23;2.40;;;11.80;99.90;;;;;;4941725;29;20279;-95
2022/06/23 10:53:20;;;;;;;10.43;2.47;;;11.70;99.90;;;;;;4942318;29;20232;-96
2022/06/23 10:56:14;;;;;;;9.87;2.50;;;11.70;99.90;;;;;;4944547;29;20267;-95
2022/06/23 10:59:17;;;;;;;10.53;2.30;;;11.60;99.90;;;;;;4944314;29;20318;-96
2022/06/23 11:02:28;;;;;;;10.33;2.43;;;11.60;99.90;;;;;;4952159;29;20227;-96
2022/06/23 11:05:26;;;;;;;13.50;2.17;;;11.40;99.90;;;;;;4955539;28;20242;-96
2022/06/23 11:08:24;;;;;;;10.43;1.93;;;11.30;99.90;;;;;;4955520;28;20220;-96
2022/06/23 11:11:13;;;;;;;11.83;1.90;;;11.30;99.90;;;;;;4953690;29;20192;-96
2022/06/23 11:13:54;;;;;;;14.93;2.30;;;11.20;99.90;;;;;;4960881;28;20228;-96
2022/06/23 11:16:36;;;;;;;9.07;1.70;;;11.20;99.90;;;;;;4959531;28;20305;-96
2022/06/23 11:19:31;;;;;;;12.80;2.83;;;11.20;99.90;;;;;;4974255;28;20679;-95
2022/06/23 11:22:26;;;;;;;8.80;1.93;;;11.10;99.90;;;;;;4964772;28;20184;-96
2022/06/23 11:25:09;;;;;;;9.73;1.77;;;11.10;99.90;;;;;;4964116;28;20208;-96
2022/06/23 11:27:51;;;;;;;11.33;2.20;;;11.00;99.90;;;;;;4963906;28;20220;-96
2022/06/23 11:30:29;;;;;;;8.60;2.23;;;11.00;99.90;;;;;;4963219;28;20211;-96
2022/06/23 11:33:40;;;;;;;9.30;2.10;;;10.90;99.90;;;;;;4961785;28;20652;-95
2022/06/23 11:36:32;;;;;;;8.70;2.03;;;10.90;99.90;;;;;;4953337;28;20216;-95
2022/06/23 11:39:28;;;;;;;9.97;2.20;;;10.80;99.90;;;;;;4942200;29;20216;-94
2022/06/23 11:42:37;;;;;;;11.37;2.40;;;10.80;99.90;;;;;;4940903;29;20259;-94
2022/06/23 11:45:34;;;;;;;5.57;1.30;;;10.70;99.90;;;;;;4930019;28;20645;-94
2022/06/23 11:48:31;;;;;;;12.30;2.77;;;10.70;99.90;;;;;;4941481;29;20216;-94
2022/06/23 11:51:10;;;;;;;11.57;1.60;;;10.60;99.90;;;;;;4959826;28;20234;-96
2022/06/23 11:54:00;;;;;;;7.97;1.73;;;10.60;99.90;;;;;;4979993;28;20718;-96
2022/06/23 11:56:44;;;;;;;11.23;2.20;;;10.50;99.90;;;;;;4980455;28;20210;-95
2022/06/23 11:59:33;;;;;;;16.50;1.97;;;10.40;99.90;;;;;;4980484;28;20213;-95
2022/06/23 12:02:25;;;;;;;10.30;2.77;;;10.30;99.90;;;;;;4979358;28;20298;-95
2022/06/23 12:05:15;;;;;;;8.73;1.27;;;10.30;99.90;;;;;;4981257;28;20215;-94
2022/06/23 12:08:20;;;;;;;9.43;2.10;;;10.30;99.90;;;;;;4975789;28;20204;-95
2022/06/23 12:10:54;;;;;;;7.57;1.63;;;10.30;99.90;;;;;;4952513;29;20250;-95
2022/06/23 12:13:28;;;;;;;7.37;1.87;;;10.30;99.90;;;;;;4961282;28;20231;-95
2022/06/23 12:15:59;;;;;;;5.47;1.90;;;10.30;99.90;;;;;;4961033;28;20587;-95
2022/06/23 12:18:36;;;;;;;8.33;1.40;;;10.20;99.90;;;;;;4960410;28;20223;-94
2022/06/23 12:21:21;;;;;;;10.67;1.80;;;10.20;99.90;;;;;;4958917;28;20219;-95
2022/06/23 12:23:59;;;;;;;7.90;1.60;;;10.20;99.90;;;;;;4960152;28;20208;-94
2022/06/23 12:26:39;;;;;;;8.20;1.93;;;10.20;99.90;;;;;;4959511;28;20222;-94
2022/06/23 12:29:20;;;;;;;12.67;2.10;;;10.20;99.90;;;;;;4958675;29;20241;-96
2022/06/23 12:31:58;;;;;;;8.70;2.23;;;10.10;99.90;;;;;;4958888;28;20641;-96
2022/06/23 12:34:38;;;;;;;11.30;2.07;;;10.10;99.90;;;;;;4959623;28;20250;-96
2022/06/23 12:37:21;;;;;;;12.07;2.23;;;10.10;99.90;;;;;;4959464;28;20223;-96
2022/06/23 12:39:59;;;;;;;8.60;1.70;;;10.10;99.90;;;;;;4957315;29;20661;-96
2022/06/23 12:42:38;;;;;;;9.60;1.77;;;10.10;99.90;;;;;;4958942;28;20235;-94
2022/06/23 12:45:41;;;;;;;6.53;1.87;;;10.20;99.90;;;;;;4953679;28;20243;-93
2022/06/23 12:48:37;;;;;;;11.67;2.07;;;10.30;99.90;;;;;;4935054;29;20215;-94
2022/06/23 12:51:23;;;;;;;10.10;1.90;;;10.30;99.90;;;;;;4942390;29;20220;-93
2022/06/23 12:54:23;;;;;;;11.20;2.00;;;10.40;99.90;;;;;;4942750;29;20249;-94
2022/06/23 12:57:22;;;;;;;9.93;2.07;;;10.40;99.90;;;;;;4940875;29;20674;-94
2022/06/23 13:00:06;;;;;;;9.07;1.73;;;10.50;99.90;;;;;;4943089;29;20678;-96
2022/06/23 13:02:40;;;;;;;12.13;2.13;;;10.50;99.90;;;;;;4945615;29;20244;-96
2022/06/23 13:05:17;;;;;;;6.07;1.80;;;10.50;99.90;;;;;;4943208;29;20287;-96
2022/06/23 13:08:10;;;;;;;9.13;1.80;;;10.50;99.90;;;;;;4955630;29;20231;-95
2022/06/23 13:10:48;;;;;;;8.27;2.13;;;10.50;99.90;;;;;;4965983;28;20215;-96
2022/06/23 13:13:24;;;;;;;11.03;2.23;;;10.50;99.90;;;;;;4964002;28;20640;-96
2022/06/23 13:16:02;;;;;;;12.83;1.70;;;10.50;99.90;;;;;;4960209;28;20218;-96
2022/06/23 13:18:39;;;;;;;12.67;2.17;;;10.50;99.90;;;;;;4960336;28;20251;-95
2022/06/23 13:21:15;;;;;;;9.73;2.10;;;10.50;99.90;;;;;;4963734;28;20210;-95
2022/06/23 13:23:51;;;;;;;9.03;1.83;;;10.50;99.90;;;;;;4983184;28;20211;-94
2022/06/23 13:26:25;;;;;;;9.13;1.97;;;10.50;99.90;;;;;;4982609;28;20215;-94
2022/06/23 13:29:01;;;;;;;14.17;1.90;;;10.50;99.90;;;;;;4979137;28;20253;-95
2022/06/23 13:31:41;;;;;;;7.17;1.57;;;10.50;99.90;;;;;;4977327;28;20273;-96
2022/06/23 13:34:19;;;;;;;8.93;2.40;;;10.50;99.90;;;;;;4978519;28;20234;-95
2022/06/23 13:36:57;;;;;;;7.50;2.50;;;10.50;99.90;;;;;;4978222;28;20242;-94
2022/06/23 13:39:36;;;;;;;8.73;2.13;;;10.60;99.90;;;;;;4978294;28;20206;-94
2022/06/23 13:42:14;;;;;;;9.07;2.23;;;10.60;99.90;;;;;;4977885;28;20606;-94
2022/06/23 13:44:53;;;;;;;10.97;2.10;;;10.70;99.90;;;;;;4978428;28;20236;-94
2022/06/23 13:47:37;;;;;;;11.27;2.27;;;10.70;99.90;;;;;;4967563;28;20653;-95
2022/06/23 13:50:17;;;;;;;12.57;2.37;;;10.70;99.90;;;;;;4950035;29;20227;-95
2022/06/23 13:52:56;;;;;;;12.90;1.97;;;10.70;99.90;;;;;;4947424;28;20222;-95
2022/06/23 13:55:33;;;;;;;11.43;2.13;;;10.80;99.90;;;;;;4941234;29;20255;-95
2022/06/23 13:58:12;;;;;;;10.17;1.87;;;10.90;99.90;;;;;;4944165;29;20712;-94
2022/06/23 14:00:51;;;;;;;10.50;1.80;;;11.00;99.90;;;;;;4951828;29;20200;-94
2022/06/23 14:03:31;;;;;;;12.60;2.40;;;11.10;99.90;;;;;;4976720;28;20192;-94
2022/06/23 14:06:07;;;;;;;8.63;1.93;;;11.20;99.90;;;;;;4968255;28;20208;-95
2022/06/23 14:08:42;;;;;;;10.03;1.73;;;11.20;99.90;;;;;;4948540;28;20216;-95
2022/06/23 14:11:25;;;;;;;8.50;1.87;;;11.30;99.90;;;;;;4960565;29;20785;-95
2022/06/23 14:14:05;;;;;;;8.33;1.73;;;11.40;99.90;;;;;;4959821;28;20212;-95
2022/06/23 14:16:42;;;;;;;11.67;1.50;;;11.40;99.90;;;;;;4950848;28;20267;-95
2022/06/23 14:19:20;;;;;;;9.53;1.87;;;11.40;99.90;;;;;;4958983;29;20219;-95
2022/06/23 14:22:03;;;;;;;8.23;1.70;;;11.40;99.90;;;;;;4975845;28;20218;-96
2022/06/23 14:24:41;;;;;;;7.70;1.57;;;11.50;99.90;;;;;;4957795;28;20267;-95
2022/06/23 14:27:20;;;;;;;9.10;1.90;;;11.50;99.90;;;;;;4962038;28;20270;-95
2022/06/23 14:29:58;;;;;;;6.73;1.57;;;11.60;99.90;;;;;;4973988;28;20248;-96
2022/06/23 14:32:38;;;;;;;10.77;1.83;;;11.70;99.90;;;;;;4958831;29;20921;-95
2022/06/23 14:38:18;;;;;;;8.47;1.93;;;11.70;99.90;;;;;;4953156;29;20216;-96
2022/06/23 14:41:03;;;;;;;8.10;1.73;;;11.90;99.90;;;;;;4955671;29;20207;-96
2022/06/23 14:43:48;;;;;;;7.90;1.80;;;12.00;99.90;;;;;;4961028;28;20215;-96
2022/06/23 14:46:30;;;;;;;6.63;1.60;;;12.20;99.90;;;;;;5089566;23;20735;-96
2022/06/23 14:49:42;;;;;;;9.43;1.57;;;13.00;99.90;;;;;;4951446;28;20268;-96
2022/06/23 14:52:23;;;;;;;8.47;1.70;;;14.10;99.90;;;;;;4921851;28;20223;-96
2022/06/23 14:55:10;;;;;;;6.20;1.43;;;15.20;99.90;;;;;;4955461;29;20247;-95
2022/06/23 14:57:58;;;;;;;6.50;2.00;;;15.80;99.90;;;;;;4958415;28;20208;-96
2022/06/23 15:10:22;;;;;;;9.43;1.97;;;16.80;99.90;;;;;;4955429;29;20196;-96
2022/06/23 15:12:58;;;;;;;5.57;1.80;;;16.90;99.90;;;;;;4957730;29;20260;-96
2022/06/23 15:15:39;;;;;;;7.20;2.23;;;17.30;99.90;;;;;;4958581;29;20624;-96
2022/06/23 15:18:16;;;;;;;6.33;2.10;;;17.60;99.90;;;;;;4956027;29;20271;-96
2022/06/23 15:21:04;;;;;;;8.23;1.87;;;17.90;99.90;;;;;;4947183;29;20233;-96
2022/06/23 15:23:49;;;;;;;8.93;2.20;;;17.40;99.90;;;;;;4933411;29;20706;-96
2022/06/23 15:44:13;;;;;;;9.70;1.90;;;16.00;99.90;;;;;;4931981;29;20215;-96
2022/06/23 15:46:57;;;;;;;5.43;1.87;;;15.70;99.90;;;;;;4947916;28;20300;-96
2022/06/23 15:49:40;;;;;;;10.83;2.40;;;15.70;99.90;;;;;;4950934;29;20208;-96
2022/06/23 15:52:22;;;;;;;9.73;1.80;;;15.70;99.90;;;;;;4936126;29;20717;-96
2022/06/23 15:55:02;;;;;;;8.13;2.00;;;15.50;99.90;;;;;;4952880;29;20259;-96
2022/06/23 15:57:42;;;;;;;6.53;1.70;;;15.20;99.90;;;;;;4954943;29;20208;-94
2022/06/23 16:00:29;;;;;;;6.13;1.90;;;14.90;99.90;;;;;;4954565;29;20676;-96
2022/06/23 16:03:08;;;;;;;7.07;1.73;;;14.90;99.90;;;;;;4949168;28;20240;-96
2022/06/23 16:05:54;;;;;;;8.13;1.77;;;15.10;99.90;;;;;;4955717;28;20357;-96
2022/06/23 16:08:31;;;;;;;5.80;1.70;;;15.10;99.90;;;;;;4958898;28;20222;-96
2022/06/23 16:11:08;;;;;;;8.30;2.07;;;15.00;99.90;;;;;;4958926;28;20244;-96
2022/06/23 16:16:45;;;;;;;10.93;2.00;;;15.40;99.90;;;;;;5117683;23;20247;-96
2022/06/23 16:19:28;;;;;;;6.97;1.30;;;15.40;99.90;;;;;;4957065;28;20211;-90
2022/06/23 16:22:06;;;;;;;6.43;1.73;;;15.10;99.90;;;;;;4949300;28;20196;-96
2022/06/23 16:24:43;;;;;;;7.23;1.60;;;15.20;99.90;;;;;;4960512;28;20264;-94
2022/06/23 16:27:18;;;;;;;6.57;1.27;;;15.40;99.90;;;;;;4961713;28;20200;-96
2022/06/23 16:30:00;;;;;;;5.13;1.60;;;15.60;99.90;;;;;;4969704;28;20239;-95
2022/06/23 16:32:45;;;;;;;6.73;1.80;;;15.80;99.90;;;;;;4960136;28;20224;-96
2022/06/23 16:35:26;;;;;;;8.73;1.80;;;15.80;99.90;;;;;;4959989;28;20263;-96
2022/06/23 16:38:04;;;;;;;4.93;1.30;;;15.60;99.90;;;;;;4958654;28;20200;-95
2022/06/23 16:40:44;;;;;;;8.03;1.33;;;15.50;99.90;;;;;;4960087;28;20236;-95
2022/06/23 16:43:19;;;;;;;3.83;1.73;;;15.50;99.90;;;;;;4960064;28;20196;-96
2022/06/23 16:45:59;;;;;;;5.10;1.40;;;15.40;99.90;;;;;;4959701;28;20204;-96
2022/06/23 16:48:54;;;;;;;6.53;1.67;;;15.30;99.90;;;;;;4958526;28;20196;-96
2022/06/23 16:51:32;;;;;;;5.73;1.30;;;15.30;99.90;;;;;;4958199;28;20275;-95
2022/06/23 16:54:12;;;;;;;4.00;1.70;;;15.30;99.90;;;;;;4959781;28;20204;-94
2022/06/23 16:56:49;;;;;;;7.90;1.87;;;15.20;99.90;;;;;;4955910;28;20238;-96
2022/06/23 16:59:27;;;;;;;8.07;1.77;;;15.20;99.90;;;;;;4956130;28;20202;-96
2022/06/23 17:02:04;;;;;;;4.67;1.57;;;15.20;99.90;;;;;;4952993;28;20192;-96
2022/06/23 17:04:49;;;;;;;6.87;1.63;;;15.20;99.90;;;;;;4951393;28;20207;-96
2022/06/23 17:07:30;;;;;;;7.87;1.70;;;15.30;99.90;;;;;;4956262;28;20254;-95
2022/06/23 17:10:12;;;;;;;5.53;1.53;;;15.20;99.90;;;;;;4954229;28;20216;-96
2022/06/23 17:12:48;;;;;;;6.53;1.73;;;15.30;99.90;;;;;;4947905;29;20561;-96
2022/06/23 17:15:24;;;;;;;4.27;1.37;;;15.30;99.90;;;;;;4946158;29;20707;-95
2022/06/23 17:18:03;;;;;;;8.17;1.90;;;15.20;99.90;;;;;;4945847;29;20208;-95
2022/06/23 17:20:42;;;;;;;5.53;1.43;;;15.20;99.90;;;;;;4949812;29;20232;-94
2022/06/23 17:23:18;;;;;;;8.03;2.23;;;15.20;99.90;;;;;;4951380;29;20231;-95
2022/06/23 17:25:53;;;;;;;7.90;1.83;;;15.20;99.90;;;;;;4945540;29;20204;-96
2022/06/23 17:28:28;;;;;;;4.43;1.43;;;15.10;99.90;;;;;;4946821;29;20218;-96
2022/06/23 17:31:07;;;;;;;9.53;1.90;;;14.90;99.90;;;;;;4942969;29;20317;-95
2022/06/23 17:33:43;;;;;;;7.63;1.80;;;14.90;99.90;;;;;;4943076;29;20228;-96